This is the latest recevied weather packets stored in our database for station/object N4OGP-WX. If no packets are shown the sender has not sent any weather packets the latest 10 day(s).
| Time | Temp. | Humidity | Pressure | Rain* | Wind** | Luminosity | Snow |
|---|---|---|---|---|---|---|---|
| 1777477369 | 23.89° C | 42% | 1020.4 hPa | 0 mm | - | - | - |
| 1777477309 | 26.11° C | 85% | 1013.8 hPa | 0 mm | - | - | - |
| 1777477249 | 26.11° C | 84% | 1013.8 hPa | 0 mm | - | - | - |
| 1777477189 | 26.11° C | 84% | 1013.9 hPa | 0 mm | - | - | - |
| 1777477129 | 26.11° C | 84% | 1013.9 hPa | 0 mm | - | - | - |
| 1777477069 | 26.11° C | 84% | 1013.9 hPa | 0 mm | - | - | - |
| 1777476979 | 26.11° C | 84% | 1013.8 hPa | 0 mm | - | - | - |
| 1777476889 | 23.89° C | 42% | 1020.4 hPa | 0 mm | - | - | - |
| 1777476829 | 26.11° C | 84% | 1014 hPa | 0 mm | - | - | - |
| 1777476769 | 23.89° C | 42% | 1020.4 hPa | 0 mm | - | - | - |
| 1777476709 | 26.11° C | 83% | 1014 hPa | 0 mm | - | - | - |
| 1777476649 | 26.11° C | 83% | 1014.1 hPa | 0 mm | - | - | - |
| 1777476589 | 23.89° C | 42% | 1020.4 hPa | 0 mm | - | - | - |
| 1777476529 | 23.89° C | 42% | 1020.4 hPa | 0 mm | - | - | - |
| 1777476469 | 26.11° C | 83% | 1014 hPa | 0 mm | - | - | - |
| 1777476409 | 23.89° C | 42% | 1020.4 hPa | 0 mm | - | - | - |
| 1777476349 | 26.11° C | 83% | 1014.1 hPa | 0 mm | - | - | - |
| 1777476289 | 23.89° C | 42% | 1020.4 hPa | 0 mm | - | - | - |
| 1777476229 | 23.89° C | 42% | 1020.4 hPa | 0 mm | - | - | - |
| 1777476169 | 26.11° C | 82% | 1014.1 hPa | 0 mm | - | - | - |
| 1777476109 | 26.11° C | 83% | 1014.2 hPa | 0 mm | - | - | - |
| 1777476049 | 26.11° C | 83% | 1014.2 hPa | 0 mm | - | - | - |
| 1777475989 | 26.11° C | 83% | 1014.1 hPa | 0 mm | - | - | - |
| 1777475929 | 23.89° C | 42% | 1020.4 hPa | 0 mm | - | - | - |
| 1777475869 | 23.89° C | 42% | 1020.4 hPa | 0 mm | - | - | - |
* Rain latest hour (hover to see other rain measurements)
** Current wind speed in m/s (hover to see current wind gust speed)